Island Heights, New Jersey
Current Conditions -  °F | °C
As of 6:15 PM on Wednesday 22 Oct 2014 (Local Time) from KMJX Reporting Station
Overcast Overcast  
Wind Chill: 11°   Ceiling: 4100
Heat Index: 11°   Visibility: 10mi
Dew Point: 10°   Wind: 13mph
Humidity: 94%   Direction: 360°N
Pressure: 29.79"   Gusts: 18mph
Location:  39.94°N, 74.15°W
Report Text: KMJX 222215Z AUTO 36011G16KT 10SM FEW026 BKN041 OVC080 11/10 A2979 RMK AO1
Loading
Personal Weather Stations






























Interactive Weather Map
Tropical Storm Tracking
New forecast layout! Learn more

10-Day Weather Forecast

Advertisements
Track Severe Weather on mobile